createdAt,value
2023-04-10T00:01:46.526Z,8.19
2023-04-10T00:04:13.162Z,8.20
2023-04-10T00:06:39.561Z,8.22
2023-04-10T00:09:05.907Z,8.15
2023-04-10T00:11:32.313Z,8.34
2023-04-10T00:14:00.202Z,8.15
2023-04-10T00:16:26.651Z,8.06
2023-04-10T00:18:53.065Z,8.15
2023-04-10T00:21:19.416Z,8.11
2023-04-10T00:23:45.741Z,7.81
2023-04-10T00:26:12.128Z,7.85
2023-04-10T00:28:38.486Z,7.97
2023-04-10T00:31:06.444Z,7.78
2023-04-10T00:33:32.814Z,7.64
2023-04-10T00:35:59.265Z,7.72
2023-04-10T00:38:25.770Z,7.91
2023-04-10T00:40:52.152Z,8.02
2023-04-10T00:43:18.566Z,8.04
2023-04-10T00:45:44.984Z,8.11
2023-04-10T00:48:12.844Z,7.89
2023-04-10T00:50:39.299Z,8.09
2023-04-10T00:53:05.681Z,8.30
2023-04-10T00:55:32.071Z,8.28
2023-04-10T00:57:58.462Z,8.09
2023-04-10T01:00:25.668Z,7.97
2023-04-10T01:02:52.325Z,7.83
2023-04-10T01:05:20.348Z,7.98
2023-04-10T01:07:59.225Z,7.86
2023-04-10T01:10:34.805Z,7.88
2023-04-10T01:13:08.615Z,7.77
2023-04-10T01:15:38.271Z,7.74
2023-04-10T01:18:11.212Z,7.76
2023-04-10T01:20:40.605Z,7.75
2023-04-10T01:23:30.839Z,7.67
2023-04-10T01:26:00.861Z,7.43
2023-04-10T01:28:52.800Z,7.62
2023-04-10T01:31:24.697Z,7.51
2023-04-10T01:33:54.415Z,7.48
2023-04-10T01:36:24.206Z,7.64
2023-04-10T01:38:53.260Z,7.51
2023-04-10T01:41:21.747Z,7.59
2023-04-10T01:43:52.457Z,7.66
2023-04-10T01:46:21.320Z,7.51
2023-04-10T01:48:49.159Z,7.76
2023-04-10T01:51:17.220Z,7.56
2023-04-10T01:53:44.566Z,7.64
2023-04-10T01:56:11.055Z,7.57
2023-04-10T01:58:37.612Z,7.58
2023-04-10T02:01:05.817Z,7.46
2023-04-10T02:03:32.800Z,7.52
2023-04-10T02:06:11.168Z,7.58
2023-04-10T02:08:40.410Z,7.55
2023-04-10T02:11:12.942Z,7.19
2023-04-10T02:13:41.250Z,7.47
2023-04-10T02:16:10.128Z,7.29
2023-04-10T02:18:38.411Z,7.63
2023-04-10T02:21:06.490Z,7.67
2023-04-10T02:23:32.992Z,7.38
2023-04-10T02:26:06.190Z,7.54
2023-04-10T02:28:32.562Z,7.94
2023-04-10T02:30:58.939Z,7.60
2023-04-10T02:33:26.715Z,7.55
2023-04-10T02:35:53.226Z,7.54
2023-04-10T02:38:19.626Z,7.62
2023-04-10T02:40:45.973Z,7.78
2023-04-10T02:43:12.349Z,7.72
2023-04-10T02:45:38.699Z,7.82
2023-04-10T02:48:05.716Z,7.88
2023-04-10T02:50:33.497Z,7.71
2023-04-10T02:52:59.876Z,7.80
2023-04-10T02:55:26.256Z,7.69
2023-04-10T02:57:52.631Z,7.61
2023-04-10T03:00:19.941Z,7.70
2023-04-10T03:02:46.560Z,7.58
2023-04-10T03:05:13.203Z,7.62
2023-04-10T03:07:40.868Z,7.65
2023-04-10T03:10:08.515Z,7.56
2023-04-10T03:12:34.900Z,7.42
2023-04-10T03:15:01.278Z,7.27
2023-04-10T03:17:27.686Z,7.53
2023-04-10T03:19:54.054Z,7.35
2023-04-10T03:22:20.415Z,7.28
2023-04-10T03:24:48.070Z,7.36
2023-04-10T03:27:14.481Z,7.19
2023-04-10T03:29:40.858Z,6.68
2023-04-10T03:32:07.204Z,7.13
2023-04-10T03:34:33.568Z,6.99
2023-04-10T03:36:59.932Z,6.95
2023-04-10T03:39:26.278Z,7.07
2023-04-10T03:41:53.987Z,6.69
2023-04-10T03:44:20.336Z,6.80
2023-04-10T03:46:46.756Z,6.91
2023-04-10T03:49:13.157Z,6.77
2023-04-10T03:51:39.569Z,6.43
2023-04-10T03:54:05.930Z,6.52
2023-04-10T03:56:32.470Z,6.92
2023-04-10T03:59:00.145Z,6.79
2023-04-10T04:01:26.546Z,6.82
2023-04-10T04:03:53.350Z,6.82
2023-04-10T04:06:20.212Z,6.74
2023-04-10T04:08:46.558Z,6.70
2023-04-10T04:11:12.964Z,6.53
2023-04-10T04:13:39.305Z,6.56
2023-04-10T04:16:09.038Z,6.66
2023-04-10T04:18:35.442Z,6.66
2023-04-10T04:21:01.842Z,6.64
2023-04-10T04:23:28.207Z,6.48
2023-04-10T04:25:55.727Z,6.29
2023-04-10T04:28:22.610Z,6.31
2023-04-10T04:30:48.951Z,6.53
2023-04-10T04:33:16.688Z,6.61
2023-04-10T04:35:43.105Z,6.50
2023-04-10T04:38:09.505Z,6.34
2023-04-10T04:40:35.865Z,6.39
2023-04-10T04:43:02.200Z,6.36
2023-04-10T04:45:28.540Z,6.55
2023-04-10T04:47:55.132Z,6.35
2023-04-10T04:50:22.817Z,6.49
2023-04-10T04:52:49.400Z,6.58
2023-04-10T04:55:15.813Z,7.18
2023-04-10T04:57:42.151Z,6.88
2023-04-10T05:00:09.418Z,6.89
2023-04-10T05:02:35.914Z,6.52
2023-04-10T05:05:02.602Z,6.77
2023-04-10T05:07:30.288Z,6.78
2023-04-10T05:09:56.811Z,6.79
2023-04-10T05:12:23.178Z,7.01
2023-04-10T05:14:49.519Z,6.88
2023-04-10T05:17:15.905Z,7.27
2023-04-10T05:19:42.290Z,7.69
2023-04-10T05:22:08.750Z,7.45
2023-04-10T05:24:36.479Z,7.38
2023-04-10T05:27:03.043Z,7.59
2023-04-10T05:29:29.433Z,7.65
2023-04-10T05:31:55.789Z,7.97
2023-04-10T05:34:22.209Z,8.04
2023-04-10T05:36:48.549Z,7.64
2023-04-10T05:39:14.896Z,7.74
2023-04-10T05:41:42.567Z,7.86
2023-04-10T05:44:08.912Z,7.98
2023-04-10T05:46:35.368Z,8.04
2023-04-10T05:49:01.771Z,8.21
2023-04-10T05:51:28.139Z,8.27
2023-04-10T05:53:54.519Z,8.42
2023-04-10T05:56:20.929Z,8.45
2023-04-10T05:58:48.609Z,8.64
2023-04-10T06:01:15.034Z,8.64
2023-04-10T06:03:41.611Z,8.62
2023-04-10T06:06:08.266Z,8.62
2023-04-10T06:08:34.668Z,8.90
2023-04-10T06:11:01.092Z,8.94
2023-04-10T06:13:27.500Z,8.83
2023-04-10T06:15:55.254Z,8.96
2023-04-10T06:18:21.625Z,8.91
2023-04-10T06:20:47.969Z,9.03
2023-04-10T06:23:14.428Z,8.85
2023-04-10T06:25:40.969Z,9.23
2023-04-10T06:28:07.406Z,8.77
2023-04-10T06:30:33.786Z,9.36
2023-04-10T06:33:01.539Z,9.39
2023-04-10T06:35:27.980Z,9.41
2023-04-10T06:37:54.431Z,9.02
2023-04-10T06:40:20.818Z,9.66
2023-04-10T06:42:47.166Z,9.71
2023-04-10T06:45:13.605Z,9.96
2023-04-10T06:47:40.097Z,9.76
2023-04-10T06:50:08.500Z,10.36
2023-04-10T06:52:34.898Z,10.51
2023-04-10T06:55:01.251Z,9.72
2023-04-10T06:57:27.674Z,10.74
2023-04-10T06:59:54.268Z,10.13
2023-04-10T07:02:20.772Z,10.52
2023-04-10T07:04:47.235Z,10.91
2023-04-10T07:07:14.957Z,10.97
2023-04-10T07:09:41.743Z,11.45
2023-04-10T07:12:08.102Z,10.78
2023-04-10T07:14:34.746Z,10.80
2023-04-10T07:17:01.135Z,10.44
2023-04-10T07:19:27.476Z,10.79
2023-04-10T07:21:53.881Z,11.70
2023-04-10T07:24:21.661Z,11.68
2023-04-10T07:26:47.998Z,11.50
2023-04-10T07:29:14.404Z,11.81
2023-04-10T07:31:41.146Z,11.99
2023-04-10T07:34:07.581Z,11.86
2023-04-10T07:36:34.093Z,11.27
2023-04-10T07:39:00.459Z,11.78
2023-04-10T07:41:28.228Z,12.47
2023-04-10T07:43:54.602Z,11.86
2023-04-10T07:46:21.061Z,12.25
2023-04-10T07:48:47.492Z,11.87
2023-04-10T07:51:14.188Z,11.90
2023-04-10T07:53:40.660Z,12.37
2023-04-10T07:56:08.353Z,12.05
2023-04-10T07:58:36.062Z,12.21
2023-04-10T08:01:02.453Z,12.18
2023-04-10T08:03:29.044Z,12.34
2023-04-10T08:05:55.514Z,12.37
2023-04-10T08:08:21.866Z,12.66
2023-04-10T08:10:48.567Z,12.88
2023-04-10T08:13:14.995Z,12.64
2023-04-10T08:15:42.700Z,12.76
2023-04-10T08:18:09.052Z,13.17
2023-04-10T08:20:35.428Z,12.98
2023-04-10T08:23:12.816Z,13.54
2023-04-10T08:25:45.909Z,14.00
2023-04-10T08:28:12.246Z,13.97
2023-04-10T08:30:38.682Z,13.41
2023-04-10T08:33:06.552Z,13.63
2023-04-10T08:35:32.972Z,13.48
2023-04-10T08:38:12.669Z,14.05
2023-04-10T08:40:40.314Z,14.39
2023-04-10T08:43:06.789Z,13.51
2023-04-10T08:45:33.641Z,14.06
2023-04-10T08:48:04.420Z,14.73
2023-04-10T08:50:34.730Z,19.49
2023-04-10T08:53:08.210Z,19.16
2023-04-10T08:55:35.250Z,20.11
2023-04-10T08:58:02.225Z,21.47
2023-04-10T09:00:28.917Z,24.16
2023-04-10T09:02:55.436Z,19.18
2023-04-10T09:05:22.858Z,16.15
2023-04-10T09:07:50.862Z,17.13
2023-04-10T09:10:17.422Z,19.16
2023-04-10T09:12:44.413Z,17.61
2023-04-10T09:15:11.179Z,20.12
2023-04-10T09:17:37.575Z,21.06
2023-04-10T09:20:20.817Z,18.32
2023-04-10T09:22:47.200Z,20.22
2023-04-10T09:25:29.652Z,18.83
2023-04-10T09:28:00.289Z,18.13
2023-04-10T09:30:33.422Z,17.05
2023-04-10T09:33:01.322Z,17.03
2023-04-10T09:35:37.439Z,16.14
2023-04-10T09:38:14.110Z,16.95
2023-04-10T09:40:41.878Z,16.57
2023-04-10T09:43:17.832Z,16.36
2023-04-10T09:45:48.726Z,16.54
2023-04-10T09:48:15.123Z,16.57
2023-04-10T09:50:41.499Z,16.86
2023-04-10T09:53:08.467Z,17.52
2023-04-10T09:55:35.395Z,18.04
2023-04-10T09:58:03.646Z,16.79
2023-04-10T10:00:30.037Z,17.29
2023-04-10T10:02:59.378Z,17.01
2023-04-10T10:05:26.156Z,16.62
2023-04-10T10:07:52.638Z,17.26
2023-04-10T10:10:19.124Z,16.75
2023-04-10T10:12:48.854Z,16.86
2023-04-10T10:15:31.019Z,16.68
2023-04-10T10:18:03.924Z,17.13
2023-04-10T10:20:32.880Z,16.51
2023-04-10T10:23:02.652Z,17.65
2023-04-10T10:25:30.584Z,17.23
2023-04-10T10:28:02.279Z,17.86
2023-04-10T10:30:32.241Z,17.53
2023-04-10T10:32:59.490Z,17.28
2023-04-10T10:35:28.679Z,17.16
2023-04-10T10:37:58.068Z,18.42
2023-04-10T10:40:28.874Z,17.92
2023-04-10T10:43:00.558Z,17.84
2023-04-10T10:45:34.405Z,17.48
2023-04-10T10:48:01.011Z,17.31
2023-04-10T10:50:50.933Z,17.19
2023-04-10T10:53:31.787Z,17.62
2023-04-10T10:55:58.194Z,17.80
2023-04-10T10:58:46.366Z,17.98
2023-04-10T11:01:14.272Z,18.77
2023-04-10T11:03:41.214Z,18.29
2023-04-10T11:06:08.597Z,17.07
2023-04-10T11:08:37.196Z,17.36
2023-04-10T11:11:05.169Z,17.37
2023-04-10T11:13:32.256Z,17.02
2023-04-10T11:16:00.660Z,17.68
2023-04-10T11:19:10.477Z,17.39
2023-04-10T11:22:02.664Z,17.30
2023-04-10T11:24:30.137Z,17.40
2023-04-10T11:26:56.632Z,17.12
2023-04-10T11:29:35.152Z,18.09
2023-04-10T11:32:02.970Z,18.06
2023-04-10T11:34:30.689Z,17.46
2023-04-10T11:36:57.101Z,17.67
2023-04-10T11:39:23.984Z,17.83
2023-04-10T11:41:51.669Z,17.66
2023-04-10T11:44:26.687Z,17.70
2023-04-10T11:46:53.623Z,17.52
2023-04-10T11:49:22.404Z,17.94
2023-04-10T11:51:51.277Z,17.80
2023-04-10T11:54:19.729Z,17.94
2023-04-10T11:56:56.152Z,18.06
2023-04-10T11:59:22.816Z,18.16
2023-04-10T12:01:50.700Z,17.83
2023-04-10T12:04:18.777Z,17.82
2023-04-10T12:06:46.038Z,18.29
2023-04-10T12:09:14.832Z,18.02
2023-04-10T12:11:49.140Z,18.13
2023-04-10T12:14:15.517Z,17.99
2023-04-10T12:16:41.935Z,17.48
2023-04-10T12:19:08.627Z,17.70
2023-04-10T12:21:36.261Z,17.70
2023-04-10T12:24:02.664Z,18.44
2023-04-10T12:26:30.384Z,18.17
2023-04-10T12:28:57.910Z,18.56
2023-04-10T12:31:28.552Z,18.54
2023-04-10T12:33:54.984Z,17.67
2023-04-10T12:36:21.512Z,17.63
2023-04-10T12:38:47.884Z,17.68
2023-04-10T12:41:21.761Z,17.60
2023-04-10T12:43:49.560Z,17.89
2023-04-10T12:46:24.599Z,17.76
2023-04-10T12:48:51.160Z,18.04
2023-04-10T12:51:17.601Z,17.46
2023-04-10T12:53:44.316Z,17.73
2023-04-10T12:56:11.072Z,18.01
2023-04-10T12:58:38.194Z,18.13
2023-04-10T13:01:08.542Z,18.15
2023-04-10T13:03:35.802Z,18.16
2023-04-10T13:06:02.348Z,18.16
2023-04-10T13:08:28.785Z,17.90
2023-04-10T13:10:55.114Z,18.76
2023-04-10T13:13:21.444Z,18.29
2023-04-10T13:15:47.916Z,18.05
2023-04-10T13:18:15.661Z,17.93
2023-04-10T13:20:42.045Z,18.21
2023-04-10T13:23:08.609Z,18.29
2023-04-10T13:25:37.608Z,18.16
2023-04-10T13:28:03.960Z,18.77
2023-04-10T13:30:30.333Z,18.41
2023-04-10T13:32:56.713Z,18.38
2023-04-10T13:35:24.419Z,18.60
2023-04-10T13:37:50.792Z,18.87
2023-04-10T13:40:17.141Z,18.58
2023-04-10T13:42:43.491Z,18.88
2023-04-10T13:45:10.938Z,18.72
2023-04-10T13:47:37.340Z,19.54
2023-04-10T13:50:03.990Z,18.35
2023-04-10T13:52:31.837Z,18.71
2023-04-10T13:54:58.191Z,18.35
2023-04-10T13:57:24.552Z,17.97
2023-04-10T13:59:50.932Z,18.03
2023-04-10T14:02:17.356Z,17.98
2023-04-10T14:04:43.833Z,18.39
2023-04-10T14:07:10.193Z,18.50
2023-04-10T14:09:37.974Z,18.48
2023-04-10T14:12:04.358Z,18.50
2023-04-10T14:14:30.734Z,19.17
2023-04-10T14:16:57.510Z,18.22
2023-04-10T14:19:24.055Z,18.54
2023-04-10T14:21:50.458Z,18.66
2023-04-10T14:24:16.806Z,18.32
2023-04-10T14:26:44.515Z,18.29
2023-04-10T14:29:10.948Z,17.95
2023-04-10T14:31:44.142Z,18.01
2023-04-10T14:34:21.112Z,18.37
2023-04-10T14:36:47.516Z,18.33
2023-04-10T14:39:14.093Z,18.81
2023-04-10T14:41:40.468Z,18.37
2023-04-10T14:44:08.167Z,17.82
2023-04-10T14:46:34.565Z,17.70
2023-04-10T14:49:00.992Z,17.93
2023-04-10T14:51:27.371Z,18.16
2023-04-10T14:53:53.924Z,18.71
2023-04-10T14:56:20.656Z,18.94
2023-04-10T14:58:47.031Z,18.03
2023-04-10T15:01:15.092Z,18.42
2023-04-10T15:03:41.798Z,18.58
2023-04-10T15:06:08.291Z,18.66
2023-04-10T15:08:34.689Z,18.21
2023-04-10T15:11:01.269Z,18.44
2023-04-10T15:13:27.636Z,18.19
2023-04-10T15:15:53.999Z,18.51
2023-04-10T15:18:21.721Z,17.95
2023-04-10T15:20:48.153Z,17.91
2023-04-10T15:23:14.614Z,18.60
2023-04-10T15:25:41.024Z,18.48
2023-04-10T15:28:07.410Z,19.10
2023-04-10T15:30:33.772Z,19.39
2023-04-10T15:33:00.255Z,18.09
2023-04-10T15:35:28.139Z,18.55
2023-04-10T15:37:54.677Z,18.21
2023-04-10T15:40:21.175Z,18.39
2023-04-10T15:42:47.543Z,18.22
2023-04-10T15:45:14.009Z,17.96
2023-04-10T15:47:40.441Z,18.51
2023-04-10T15:50:09.091Z,17.92
2023-04-10T15:52:38.342Z,17.40
2023-04-10T15:55:05.566Z,17.42
2023-04-10T15:57:31.932Z,17.25
2023-04-10T15:59:58.337Z,17.28
2023-04-10T16:02:24.898Z,17.41
2023-04-10T16:04:51.594Z,17.19
2023-04-10T16:07:18.117Z,17.19
2023-04-10T16:09:45.806Z,17.37
2023-04-10T16:12:12.803Z,17.14
2023-04-10T16:14:39.152Z,17.55
2023-04-10T16:17:05.537Z,17.33
2023-04-10T16:19:31.875Z,17.40
2023-04-10T16:21:58.235Z,17.68
2023-04-10T16:24:24.605Z,17.71
2023-04-10T16:26:52.270Z,17.08
2023-04-10T16:29:18.636Z,17.27
2023-04-10T16:31:45.310Z,16.90
2023-04-10T16:34:11.726Z,17.36
2023-04-10T16:36:38.079Z,17.41
2023-04-10T16:39:04.448Z,17.26
2023-04-10T16:41:30.841Z,16.99
2023-04-10T16:43:58.498Z,17.15
2023-04-10T16:46:25.004Z,16.86
2023-04-10T16:48:51.449Z,17.51
2023-04-10T16:51:18.328Z,17.36
2023-04-10T16:53:45.106Z,17.20
2023-04-10T16:56:11.514Z,17.34
2023-04-10T16:58:37.901Z,17.30
2023-04-10T17:01:19.572Z,16.94
2023-04-10T17:03:48.261Z,17.02
2023-04-10T17:06:14.742Z,16.95
2023-04-10T17:08:41.142Z,16.88
2023-04-10T17:11:07.565Z,16.93
2023-04-10T17:13:34.161Z,16.96
2023-04-10T17:16:00.547Z,17.35
2023-04-10T17:18:28.224Z,17.03
2023-04-10T17:20:54.586Z,16.70
2023-04-10T17:23:21.257Z,16.52
2023-04-10T17:25:47.718Z,16.82
2023-04-10T17:28:14.099Z,16.56
2023-04-10T17:30:40.828Z,16.61
2023-04-10T17:33:07.205Z,16.79
2023-04-10T17:35:34.970Z,16.68
2023-04-10T17:38:01.401Z,16.53
2023-04-10T17:40:27.902Z,16.79
2023-04-10T17:42:54.290Z,16.89
2023-04-10T17:45:20.730Z,16.94
2023-04-10T17:47:47.152Z,16.74
2023-04-10T17:50:13.758Z,16.45
2023-04-10T17:52:41.545Z,16.62
2023-04-10T17:55:08.880Z,16.72
2023-04-10T17:57:35.234Z,16.97
2023-04-10T18:00:02.385Z,16.75
2023-04-10T18:02:28.844Z,16.30
2023-04-10T18:04:56.116Z,16.18
2023-04-10T18:07:22.555Z,16.54
2023-04-10T18:09:50.252Z,16.58
2023-04-10T18:12:16.603Z,16.08
2023-04-10T18:14:43.134Z,16.13
2023-04-10T18:17:09.468Z,16.00
2023-04-10T18:19:35.819Z,15.94
2023-04-10T18:22:02.182Z,16.05
2023-04-10T18:24:28.559Z,16.02
2023-04-10T18:26:56.262Z,16.41
2023-04-10T18:29:22.646Z,16.28
2023-04-10T18:31:49.026Z,16.29
2023-04-10T18:34:15.378Z,16.26
2023-04-10T18:36:41.739Z,16.09
2023-04-10T18:39:08.246Z,16.07
2023-04-10T18:41:34.620Z,16.07
2023-04-10T18:44:05.588Z,16.16
2023-04-10T18:46:32.822Z,16.01
2023-04-10T18:48:59.540Z,15.94
2023-04-10T18:51:26.064Z,16.47
2023-04-10T18:53:52.627Z,16.51
2023-04-10T18:56:19.119Z,15.91
2023-04-10T18:58:46.903Z,16.08
2023-04-10T19:01:15.964Z,15.69
2023-04-10T19:03:42.454Z,16.05
2023-04-10T19:06:09.022Z,16.01
2023-04-10T19:08:35.812Z,16.62
2023-04-10T19:11:03.827Z,16.11
2023-04-10T19:13:30.329Z,15.80
2023-04-10T19:15:56.730Z,16.00
2023-04-10T19:18:24.415Z,15.94
2023-04-10T19:20:53.024Z,15.95
2023-04-10T19:23:19.942Z,15.82
2023-04-10T19:25:46.452Z,15.66
2023-04-10T19:28:12.818Z,16.23
2023-04-10T19:30:39.167Z,16.20
2023-04-10T19:33:05.724Z,15.94
2023-04-10T19:35:33.624Z,15.73
2023-04-10T19:38:00.010Z,16.17
2023-04-10T19:40:26.385Z,15.73
2023-04-10T19:42:52.992Z,15.86
2023-04-10T19:45:20.180Z,16.01
2023-04-10T19:47:50.289Z,15.80
2023-04-10T19:50:16.799Z,15.97
2023-04-10T19:52:44.498Z,16.12
2023-04-10T19:55:10.934Z,16.32
2023-04-10T19:57:37.320Z,16.04
2023-04-10T20:00:04.446Z,16.09
2023-04-10T20:02:31.041Z,15.91
2023-04-10T20:04:57.602Z,15.87
2023-04-10T20:07:24.057Z,16.02
2023-04-10T20:09:51.912Z,15.56
2023-04-10T20:12:18.268Z,15.87
2023-04-10T20:14:44.646Z,15.87
2023-04-10T20:17:11.102Z,15.76
2023-04-10T20:19:37.550Z,16.12
2023-04-10T20:22:03.993Z,16.23
2023-04-10T20:24:30.426Z,15.86
2023-04-10T20:26:58.180Z,15.96
2023-04-10T20:29:24.556Z,15.66
2023-04-10T20:31:50.940Z,15.68
2023-04-10T20:34:17.400Z,16.09
2023-04-10T20:36:43.764Z,16.11
2023-04-10T20:39:10.131Z,16.22
2023-04-10T20:41:36.537Z,16.19
2023-04-10T20:44:04.280Z,16.24
2023-04-10T20:46:30.657Z,15.59
2023-04-10T20:48:57.185Z,15.87
2023-04-10T20:51:23.597Z,16.03
2023-04-10T20:53:49.960Z,15.68
2023-04-10T20:56:16.497Z,15.57
2023-04-10T20:58:42.877Z,15.71
2023-04-10T21:01:10.807Z,15.50
2023-04-10T21:03:37.341Z,15.75
2023-04-10T21:06:04.043Z,15.86
2023-04-10T21:08:30.446Z,15.95
2023-04-10T21:10:56.883Z,16.07
2023-04-10T21:13:23.247Z,16.15
2023-04-10T21:15:49.666Z,15.60
2023-04-10T21:18:17.415Z,15.91
2023-04-10T21:20:44.453Z,15.43
2023-04-10T21:23:10.956Z,15.57
2023-04-10T21:25:38.565Z,15.48
2023-04-10T21:28:05.004Z,15.70
2023-04-10T21:30:31.397Z,16.09
2023-04-10T21:32:57.873Z,15.48
2023-04-10T21:35:25.734Z,15.69
2023-04-10T21:37:52.091Z,15.12
2023-04-10T21:40:18.473Z,15.93
2023-04-10T21:42:44.820Z,15.78
2023-04-10T21:45:12.293Z,15.98
2023-04-10T21:47:38.690Z,15.52
2023-04-10T21:50:06.067Z,15.66
2023-04-10T21:52:33.787Z,15.55
2023-04-10T21:55:00.285Z,15.51
2023-04-10T21:57:26.668Z,15.06
2023-04-10T21:59:53.063Z,15.03
2023-04-10T22:02:19.561Z,14.73
2023-04-10T22:04:53.828Z,14.43
2023-04-10T22:07:21.320Z,14.16
2023-04-10T22:09:49.057Z,14.29
2023-04-10T22:12:15.560Z,13.56
2023-04-10T22:14:41.925Z,13.51
2023-04-10T22:17:08.382Z,13.30
2023-04-10T22:19:34.770Z,13.74
2023-04-10T22:22:01.185Z,13.62
2023-04-10T22:24:27.659Z,14.01
2023-04-10T22:26:55.354Z,14.25
2023-04-10T22:29:21.734Z,13.98
2023-04-10T22:31:48.098Z,13.85
2023-04-10T22:34:14.467Z,13.59
2023-04-10T22:36:41.023Z,13.99
2023-04-10T22:39:07.508Z,13.00
2023-04-10T22:41:33.878Z,13.64
2023-04-10T22:44:01.683Z,13.16
2023-04-10T22:46:28.094Z,13.72
2023-04-10T22:48:56.487Z,12.52
2023-04-10T22:51:23.113Z,12.99
2023-04-10T22:53:49.454Z,12.95
2023-04-10T22:56:15.982Z,12.75
2023-04-10T22:58:42.353Z,12.76
2023-04-10T23:01:10.475Z,12.93
2023-04-10T23:03:37.042Z,12.81
2023-04-10T23:06:05.079Z,12.55
2023-04-10T23:08:31.482Z,12.55
2023-04-10T23:10:57.862Z,12.50
2023-04-10T23:13:24.397Z,12.81
2023-04-10T23:15:51.151Z,13.37
2023-04-10T23:18:19.094Z,12.94
2023-04-10T23:20:46.122Z,12.48
2023-04-10T23:23:12.596Z,12.62
2023-04-10T23:25:39.217Z,12.76
2023-04-10T23:28:05.802Z,12.03
2023-04-10T23:30:32.205Z,12.69
2023-04-10T23:32:58.689Z,13.24
2023-04-10T23:35:27.451Z,12.48
2023-04-10T23:37:54.149Z,12.87
2023-04-10T23:40:21.338Z,12.72
2023-04-10T23:42:47.890Z,12.65
2023-04-10T23:45:14.246Z,12.47
2023-04-10T23:47:40.643Z,12.66
2023-04-10T23:50:08.185Z,12.34
2023-04-10T23:52:35.874Z,11.92
2023-04-10T23:55:02.202Z,11.85
2023-04-10T23:57:28.578Z,12.37
2023-04-10T23:59:54.954Z,12.03
